createdAt,value
2022-09-24T00:01:17.550Z,100623.69
2022-09-24T00:03:50.540Z,100616.69
2022-09-24T00:06:20.639Z,100623.69
2022-09-24T00:08:49.928Z,100618.47
2022-09-24T00:11:19.859Z,100620.19
2022-09-24T00:13:47.465Z,100636.75
2022-09-24T00:16:16.350Z,100625.41
2022-09-24T00:18:43.105Z,100612.34
2022-09-24T00:21:24.940Z,100622.81
2022-09-24T00:23:53.784Z,100617.53
2022-09-24T00:26:40.129Z,100627.16
2022-09-24T00:29:08.937Z,100631.56
2022-09-24T00:31:36.271Z,100635.91
2022-09-24T00:34:03.562Z,100621.09
2022-09-24T00:36:30.499Z,100627.19
2022-09-24T00:38:58.923Z,100629.81
2022-09-24T00:41:28.636Z,100618.44
2022-09-24T00:43:55.895Z,100615.88
2022-09-24T00:46:28.228Z,100614.94
2022-09-24T00:49:00.298Z,100618.44
2022-09-24T00:51:30.415Z,100611.47
2022-09-24T00:54:01.415Z,100615.00
2022-09-24T00:56:32.594Z,100611.50
2022-09-24T00:59:02.413Z,100606.28
2022-09-24T01:01:32.502Z,100604.56
2022-09-24T01:04:00.522Z,100621.13
2022-09-24T01:06:28.274Z,100622.03
2022-09-24T01:08:56.844Z,100615.91
2022-09-24T01:11:35.773Z,100618.50
2022-09-24T01:14:20.551Z,100620.25
2022-09-24T01:16:57.010Z,100607.19
2022-09-24T01:19:35.468Z,100615.03
2022-09-24T01:22:11.590Z,100608.03
2022-09-24T01:24:55.617Z,100610.66
2022-09-24T01:27:26.056Z,100615.03
2022-09-24T01:30:05.088Z,100608.88
2022-09-24T01:32:43.722Z,100609.78
2022-09-24T01:35:22.017Z,100591.47
2022-09-24T01:38:01.713Z,100592.31
2022-09-24T01:40:30.368Z,100590.63
2022-09-24T01:42:59.079Z,100592.38
2022-09-24T01:45:31.876Z,100588.91
2022-09-24T01:48:01.928Z,100581.91
2022-09-24T01:50:32.735Z,100590.63
2022-09-24T01:53:11.405Z,100575.84
2022-09-24T01:55:47.526Z,100580.16
2022-09-24T01:58:23.663Z,100580.19
2022-09-24T02:00:57.661Z,100568.88
2022-09-24T02:03:29.919Z,100572.34
2022-09-24T02:06:22.658Z,100570.63
2022-09-24T02:08:49.335Z,100574.97
2022-09-24T02:11:20.330Z,100565.38
2022-09-24T02:13:53.018Z,100583.69
2022-09-24T02:16:23.664Z,100569.75
2022-09-24T02:18:55.083Z,100588.00
2022-09-24T02:21:23.714Z,100591.50
2022-09-24T02:24:24.571Z,100592.38
2022-09-24T02:26:51.428Z,100601.09
2022-09-24T02:29:20.819Z,100595.00
2022-09-24T02:31:52.654Z,100583.66
2022-09-24T02:34:25.533Z,100584.53
2022-09-24T02:36:59.472Z,100581.06
2022-09-24T02:39:26.890Z,100587.16
2022-09-24T02:41:54.792Z,100585.41
2022-09-24T02:44:22.314Z,100574.94
2022-09-24T02:46:50.385Z,100580.19
2022-09-24T02:49:17.642Z,100573.19
2022-09-24T02:51:44.851Z,100564.50
2022-09-24T02:54:11.680Z,100580.19
2022-09-24T02:56:38.963Z,100564.50
2022-09-24T02:59:06.684Z,100581.91
2022-09-24T03:01:34.444Z,100563.63
2022-09-24T03:04:02.038Z,100573.22
2022-09-24T03:06:30.366Z,100564.47
2022-09-24T03:08:57.644Z,100572.31
2022-09-24T03:11:24.722Z,100561.00
2022-09-24T03:13:51.812Z,100562.75
2022-09-24T03:16:20.150Z,100563.63
2022-09-24T03:18:47.912Z,100558.41
2022-09-24T03:21:17.177Z,100550.56
2022-09-24T03:23:43.979Z,100545.38
2022-09-24T03:26:11.065Z,100547.97
2022-09-24T03:28:37.701Z,100546.25
2022-09-24T03:31:04.821Z,100542.75
2022-09-24T03:33:38.782Z,100552.31
2022-09-24T03:36:12.587Z,100549.72
2022-09-24T03:38:40.604Z,100545.34
2022-09-24T03:41:09.118Z,100543.63
2022-09-24T03:43:37.033Z,100536.63
2022-09-24T03:46:06.785Z,100531.41
2022-09-24T03:48:38.507Z,100541.84
2022-09-24T03:51:07.271Z,100544.47
2022-09-24T03:53:34.268Z,100539.25
2022-09-24T03:56:02.470Z,100536.59
2022-09-24T03:58:31.707Z,100530.53
2022-09-24T04:00:58.762Z,100527.03
2022-09-24T04:03:25.456Z,100534.88
2022-09-24T04:05:52.059Z,100534.00
2022-09-24T04:08:20.396Z,100527.00
2022-09-24T04:10:48.770Z,100524.44
2022-09-24T04:13:16.423Z,100526.19
2022-09-24T04:15:45.740Z,100521.84
2022-09-24T04:18:12.638Z,100522.72
2022-09-24T04:20:39.779Z,100520.09
2022-09-24T04:23:06.541Z,100520.94
2022-09-24T04:25:33.888Z,100528.81
2022-09-24T04:28:03.674Z,100519.25
2022-09-24T04:30:31.444Z,100531.44
2022-09-24T04:33:00.924Z,100534.91
2022-09-24T04:35:29.940Z,100534.91
2022-09-24T04:37:57.548Z,100533.16
2022-09-24T04:40:24.217Z,100538.38
2022-09-24T04:42:51.117Z,100535.78
2022-09-24T04:45:21.062Z,100536.63
2022-09-24T04:47:57.081Z,100534.91
2022-09-24T04:50:25.679Z,100541.00
2022-09-24T04:52:53.616Z,100536.63
2022-09-24T04:55:23.191Z,100534.03
2022-09-24T04:57:51.029Z,100541.00
2022-09-24T05:00:20.715Z,100541.88
2022-09-24T05:02:47.794Z,100541.91
2022-09-24T05:05:14.879Z,100550.59
2022-09-24T05:07:42.650Z,100559.28
2022-09-24T05:10:09.489Z,100541.03
2022-09-24T05:12:36.607Z,100541.91
2022-09-24T05:15:04.122Z,100550.59
2022-09-24T05:17:30.805Z,100561.03
2022-09-24T05:19:59.470Z,100547.97
2022-09-24T05:22:30.096Z,100547.09
2022-09-24T05:24:56.828Z,100543.63
2022-09-24T05:27:24.295Z,100554.94
2022-09-24T05:29:51.020Z,100551.44
2022-09-24T05:32:19.854Z,100546.22
2022-09-24T05:34:47.593Z,100547.97
2022-09-24T05:37:15.292Z,100546.25
2022-09-24T05:39:42.322Z,100545.38
2022-09-24T05:42:15.630Z,100551.47
2022-09-24T05:44:48.631Z,100551.44
2022-09-24T05:47:18.777Z,100558.41
2022-09-24T05:49:45.326Z,100554.06
2022-09-24T05:52:12.036Z,100557.56
2022-09-24T05:54:38.645Z,100549.72
2022-09-24T05:57:05.431Z,100558.41
2022-09-24T05:59:32.282Z,100542.75
2022-09-24T06:01:58.942Z,100553.19
2022-09-24T06:04:25.648Z,100559.31
2022-09-24T06:06:52.394Z,100560.16
2022-09-24T06:09:19.009Z,100559.28
2022-09-24T06:11:46.555Z,100564.50
2022-09-24T06:14:13.276Z,100540.97
2022-09-24T06:16:39.902Z,100554.06
2022-09-24T06:19:06.832Z,100559.25
2022-09-24T06:21:33.506Z,100566.09
2022-09-24T06:24:00.170Z,100561.88
2022-09-24T06:26:28.271Z,100555.75
2022-09-24T06:28:55.065Z,100558.34
2022-09-24T06:31:22.304Z,100554.84
2022-09-24T06:33:49.148Z,100566.22
2022-09-24T06:36:15.728Z,100543.56
2022-09-24T06:38:42.375Z,100560.09
2022-09-24T06:41:09.596Z,100559.22
2022-09-24T06:43:36.298Z,100564.44
2022-09-24T06:46:04.853Z,100557.47
2022-09-24T06:48:32.211Z,100559.19
2022-09-24T06:50:59.643Z,100555.63
2022-09-24T06:53:26.639Z,100553.09
2022-09-24T06:55:57.158Z,100551.38
2022-09-24T06:58:24.568Z,100566.16
2022-09-24T07:00:59.266Z,100566.22
2022-09-24T07:03:28.337Z,100570.56
2022-09-24T07:05:55.754Z,100567.91
2022-09-24T07:08:22.700Z,100571.44
2022-09-24T07:10:49.825Z,100567.97
2022-09-24T07:13:16.988Z,100564.50
2022-09-24T07:15:44.585Z,100545.34
2022-09-24T07:18:12.652Z,100564.50
2022-09-24T07:20:40.021Z,100563.63
2022-09-24T07:23:08.678Z,100564.50
2022-09-24T07:25:36.640Z,100567.97
2022-09-24T07:28:06.036Z,100564.50
2022-09-24T07:30:34.069Z,100567.13
2022-09-24T07:33:00.790Z,100559.31
2022-09-24T07:35:28.786Z,100564.53
2022-09-24T07:38:04.706Z,100560.16
2022-09-24T07:40:32.413Z,100566.28
2022-09-24T07:43:00.071Z,100569.75
2022-09-24T07:45:29.099Z,100568.88
2022-09-24T07:48:04.924Z,100576.72
2022-09-24T07:50:39.395Z,100573.22
2022-09-24T07:53:06.644Z,100578.44
2022-09-24T07:55:39.428Z,100579.34
2022-09-24T07:58:08.991Z,100587.16
2022-09-24T08:00:35.655Z,100586.28
2022-09-24T08:03:03.494Z,100576.69
2022-09-24T08:05:30.120Z,100581.91
2022-09-24T08:07:57.865Z,100581.03
2022-09-24T08:10:26.376Z,100588.03
2022-09-24T08:12:53.893Z,100569.75
2022-09-24T08:15:22.727Z,100583.63
2022-09-24T08:17:49.944Z,100570.59
2022-09-24T08:20:17.208Z,100587.09
2022-09-24T08:22:43.800Z,100592.31
2022-09-24T08:25:10.344Z,100587.13
2022-09-24T08:27:37.539Z,100594.06
2022-09-24T08:30:05.634Z,100592.28
2022-09-24T08:32:32.691Z,100592.28
2022-09-24T08:34:59.434Z,100590.50
2022-09-24T08:37:27.816Z,100596.53
2022-09-24T08:39:54.556Z,100594.88
2022-09-24T08:42:43.870Z,100600.13
2022-09-24T08:45:29.920Z,100600.06
2022-09-24T08:48:06.626Z,100605.31
2022-09-24T08:50:39.509Z,100601.81
2022-09-24T08:53:12.072Z,100605.34
2022-09-24T08:55:43.283Z,100603.50
2022-09-24T08:58:25.367Z,100614.09
2022-09-24T09:01:25.760Z,100601.81
2022-09-24T09:04:25.612Z,100597.44
2022-09-24T09:07:40.017Z,100605.19
2022-09-24T09:10:16.789Z,100612.19
2022-09-24T09:12:53.976Z,100608.63
2022-09-24T09:15:35.549Z,100616.50
2022-09-24T09:18:16.869Z,100609.44
2022-09-24T09:20:45.604Z,100616.38
2022-09-24T09:23:17.270Z,100614.69
2022-09-24T09:25:56.926Z,100613.75
2022-09-24T09:28:26.501Z,100612.97
2022-09-24T09:31:06.482Z,100612.91
2022-09-24T09:33:33.074Z,100611.94
2022-09-24T09:36:09.070Z,100617.03
2022-09-24T09:38:42.341Z,100612.63
2022-09-24T09:41:40.394Z,100616.09
2022-09-24T09:44:31.268Z,100608.22
2022-09-24T09:47:11.552Z,100610.78
2022-09-24T09:49:40.291Z,100605.59
2022-09-24T09:52:21.046Z,100614.16
2022-09-24T09:54:48.689Z,100621.91
2022-09-24T09:57:23.997Z,100615.69
2022-09-24T09:59:54.226Z,100601.16
2022-09-24T10:02:33.845Z,100616.66
2022-09-24T10:05:05.550Z,100611.31
2022-09-24T10:07:32.714Z,100601.69
2022-09-24T10:10:24.581Z,100606.34
2022-09-24T10:13:12.624Z,100598.63
2022-09-24T10:15:51.087Z,100606.94
2022-09-24T10:18:30.792Z,100605.28
2022-09-24T10:20:58.947Z,100610.53
2022-09-24T10:23:47.381Z,100609.81
2022-09-24T10:26:15.427Z,100612.25
2022-09-24T10:29:10.797Z,100599.06
2022-09-24T10:31:42.142Z,100609.63
2022-09-24T10:34:23.644Z,100613.16
2022-09-24T10:36:53.933Z,100607.00
2022-09-24T10:39:22.703Z,100607.59
2022-09-24T10:41:54.425Z,100608.56
2022-09-24T10:44:22.150Z,100605.94
2022-09-24T10:47:17.017Z,100606.53
2022-09-24T10:50:25.261Z,100600.59
2022-09-24T10:53:06.712Z,100603.41
2022-09-24T10:55:37.269Z,100612.06
2022-09-24T10:58:28.377Z,100602.97
2022-09-24T11:01:19.264Z,100599.09
2022-09-24T11:04:01.207Z,100605.19
2022-09-24T11:07:07.928Z,100611.88
2022-09-24T11:09:42.478Z,100610.13
2022-09-24T11:12:24.300Z,100610.06
2022-09-24T11:15:14.262Z,100611.72
2022-09-24T11:18:11.416Z,100599.28
2022-09-24T11:20:43.996Z,100598.47
2022-09-24T11:23:19.666Z,100601.00
2022-09-24T11:26:07.904Z,100600.16
2022-09-24T11:28:37.411Z,100595.72
2022-09-24T11:31:22.755Z,100589.53
2022-09-24T11:34:04.953Z,100598.28
2022-09-24T11:36:40.764Z,100598.38
2022-09-24T11:39:31.886Z,100598.22
2022-09-24T11:42:04.543Z,100605.50
2022-09-24T11:44:56.016Z,100603.97
2022-09-24T11:47:37.995Z,100605.66
2022-09-24T11:50:29.313Z,100607.50
2022-09-24T11:53:17.137Z,100601.44
2022-09-24T11:55:51.757Z,100595.44
2022-09-24T11:58:34.370Z,100606.88
2022-09-24T12:01:09.951Z,100590.44
2022-09-24T12:04:18.299Z,100599.38
2022-09-24T12:06:52.318Z,100594.09
2022-09-24T12:09:35.954Z,100594.00
2022-09-24T12:12:43.314Z,100592.09
2022-09-24T12:15:18.533Z,100597.38
2022-09-24T12:18:11.363Z,100588.34
2022-09-24T12:20:50.214Z,100592.50
2022-09-24T12:23:20.798Z,100595.91
2022-09-24T12:25:53.332Z,100589.63
2022-09-24T12:28:40.481Z,100580.81
2022-09-24T12:31:44.381Z,100583.25
2022-09-24T12:34:22.965Z,100586.78
2022-09-24T12:37:02.572Z,100584.09
2022-09-24T12:39:37.250Z,100577.72
2022-09-24T12:42:08.111Z,100583.78
2022-09-24T12:44:54.445Z,100587.03
2022-09-24T12:47:27.923Z,100582.03
2022-09-24T12:49:58.461Z,100589.03
2022-09-24T12:52:32.359Z,100594.44
2022-09-24T12:55:02.330Z,100598.56
2022-09-24T12:57:39.701Z,100578.19
2022-09-24T13:00:32.053Z,100589.81
2022-09-24T13:02:59.970Z,100592.50
2022-09-24T13:05:28.711Z,100590.16
2022-09-24T13:07:55.277Z,100587.47
2022-09-24T13:10:25.570Z,100581.97
2022-09-24T13:12:52.915Z,100580.31
2022-09-24T13:15:32.570Z,100585.53
2022-09-24T13:18:11.376Z,100585.38
2022-09-24T13:20:40.497Z,100577.53
2022-09-24T13:23:14.419Z,100579.13
2022-09-24T13:25:41.680Z,100576.53
2022-09-24T13:28:29.252Z,100582.88
2022-09-24T13:31:22.935Z,100577.56
2022-09-24T13:33:53.186Z,100583.75
2022-09-24T13:36:42.673Z,100576.84
2022-09-24T13:39:24.533Z,100577.63
2022-09-24T13:42:21.614Z,100581.38
2022-09-24T13:44:55.511Z,100579.44
2022-09-24T13:47:22.104Z,100579.72
2022-09-24T13:49:51.804Z,100576.78
2022-09-24T13:52:33.837Z,100583.69
2022-09-24T13:55:08.819Z,100580.31
2022-09-24T13:57:44.560Z,100577.63
2022-09-24T14:00:11.136Z,100581.16
2022-09-24T14:02:38.459Z,100578.50
2022-09-24T14:05:14.614Z,100588.88
2022-09-24T14:07:41.375Z,100580.97
2022-09-24T14:10:14.558Z,100589.59
2022-09-24T14:12:41.172Z,100581.47
2022-09-24T14:15:17.808Z,100591.19
2022-09-24T14:17:58.278Z,100589.47
2022-09-24T14:20:33.950Z,100580.63
2022-09-24T14:23:01.712Z,100577.25
2022-09-24T14:25:36.524Z,100586.03
2022-09-24T14:28:04.904Z,100586.97
2022-09-24T14:30:34.632Z,100592.25
2022-09-24T14:33:11.908Z,100586.06
2022-09-24T14:35:39.824Z,100573.78
2022-09-24T14:42:26.474Z,100573.00
2022-09-24T14:49:18.625Z,100591.41
2022-09-24T14:51:59.584Z,100583.53
2022-09-24T14:54:42.985Z,100594.09
2022-09-24T14:57:18.604Z,100587.03
2022-09-24T14:59:46.679Z,100587.84
2022-09-24T15:02:29.682Z,100590.44
2022-09-24T15:05:06.418Z,100584.41
2022-09-24T15:07:34.828Z,100588.00
2022-09-24T15:10:04.615Z,100595.91
2022-09-24T15:12:40.635Z,100585.38
2022-09-24T15:15:24.838Z,100593.25
2022-09-24T15:17:51.439Z,100591.75
2022-09-24T15:20:18.302Z,100591.91
2022-09-24T15:22:46.924Z,100593.66
2022-09-24T15:25:14.574Z,100591.94
2022-09-24T15:27:42.910Z,100593.63
2022-09-24T15:30:18.529Z,100589.97
2022-09-24T15:32:45.243Z,100594.38
2022-09-24T15:35:15.033Z,100583.94
2022-09-24T15:37:41.901Z,100578.66
2022-09-24T15:40:25.967Z,100583.94
2022-09-24T15:42:52.891Z,100585.75
2022-09-24T15:45:22.042Z,100587.50
2022-09-24T15:47:49.983Z,100590.13
2022-09-24T15:50:17.255Z,100589.38
2022-09-24T15:52:48.711Z,100587.59
2022-09-24T15:55:17.993Z,100579.75
2022-09-24T15:57:46.690Z,100585.78
2022-09-24T16:00:22.396Z,100590.25
2022-09-24T16:02:52.240Z,100591.13
2022-09-24T16:05:19.539Z,100596.38
2022-09-24T16:07:46.189Z,100592.78
2022-09-24T16:10:14.353Z,100598.88
2022-09-24T16:12:42.001Z,100596.31
2022-09-24T16:15:12.789Z,100592.91
2022-09-24T16:17:39.379Z,100595.59
2022-09-24T16:20:07.242Z,100594.75
2022-09-24T16:22:33.806Z,100587.78
2022-09-24T16:25:00.346Z,100597.47
2022-09-24T16:27:26.930Z,100592.22
2022-09-24T16:29:53.493Z,100599.22
2022-09-24T16:32:20.115Z,100600.06
2022-09-24T16:34:46.695Z,100608.84
2022-09-24T16:37:14.555Z,100607.22
2022-09-24T16:39:41.118Z,100605.47
2022-09-24T16:42:08.185Z,100598.56
2022-09-24T16:44:34.873Z,100606.41
2022-09-24T16:47:01.673Z,100606.50
2022-09-24T16:49:28.346Z,100607.41
2022-09-24T16:51:55.858Z,100604.84
2022-09-24T16:54:23.074Z,100602.28
2022-09-24T16:56:52.058Z,100600.56
2022-09-24T16:59:19.342Z,100605.03
2022-09-24T17:01:46.029Z,100600.69
2022-09-24T17:04:12.705Z,100611.09
2022-09-24T17:06:39.941Z,100608.53
2022-09-24T17:09:25.909Z,100612.06
2022-09-24T17:11:52.507Z,100605.94
2022-09-24T17:14:19.198Z,100608.63
2022-09-24T17:16:45.901Z,100602.41
2022-09-24T17:19:13.102Z,100617.38
2022-09-24T17:21:42.315Z,100609.53
2022-09-24T17:24:09.882Z,100611.31
2022-09-24T17:26:37.537Z,100615.75
2022-09-24T17:29:04.393Z,100614.91
2022-09-24T17:31:31.150Z,100614.03
2022-09-24T17:34:07.290Z,100614.03
2022-09-24T17:36:35.026Z,100601.94
2022-09-24T17:39:02.029Z,100609.81
2022-09-24T17:41:30.199Z,100615.03
2022-09-24T17:43:58.611Z,100609.84
2022-09-24T17:46:27.669Z,100613.34
2022-09-24T17:48:55.877Z,100626.47
2022-09-24T17:51:32.443Z,100624.72
2022-09-24T17:54:01.189Z,100620.38
2022-09-24T17:56:29.568Z,100625.66
2022-09-24T17:58:56.411Z,100616.97
2022-09-24T18:01:25.812Z,100617.78
2022-09-24T18:03:54.280Z,100621.28
2022-09-24T18:06:21.695Z,100625.69
2022-09-24T18:08:48.254Z,100622.22
2022-09-24T18:11:17.599Z,100629.22
2022-09-24T18:13:44.875Z,100624.91
2022-09-24T18:16:16.749Z,100632.72
2022-09-24T18:18:44.194Z,100630.97
2022-09-24T18:21:13.024Z,100633.66
2022-09-24T18:23:40.783Z,100638.91
2022-09-24T18:26:10.518Z,100638.91
2022-09-24T18:28:58.680Z,100645.03
2022-09-24T18:31:28.915Z,100647.66
2022-09-24T18:33:58.324Z,100640.75
2022-09-24T18:36:28.346Z,100653.00
2022-09-24T18:38:55.942Z,100656.47
2022-09-24T18:41:25.923Z,100653.03
2022-09-24T18:43:53.987Z,100659.16
2022-09-24T18:46:22.677Z,100656.50
2022-09-24T18:48:52.178Z,100646.00
2022-09-24T18:51:31.878Z,100665.19
2022-09-24T18:54:01.341Z,100653.94
2022-09-24T18:56:27.857Z,100651.31
2022-09-24T18:58:59.094Z,100653.94
2022-09-24T19:01:26.898Z,100658.28
2022-09-24T19:03:55.097Z,100660.03
2022-09-24T19:06:22.220Z,100656.53
2022-09-24T19:08:49.104Z,100651.44
2022-09-24T19:11:17.336Z,100662.75
2022-09-24T19:13:49.617Z,100670.56
2022-09-24T19:16:17.739Z,100665.31
2022-09-24T19:18:44.656Z,100672.28
2022-09-24T19:21:14.115Z,100670.56
2022-09-24T19:23:47.639Z,100673.16
2022-09-24T19:26:26.406Z,100672.28
2022-09-24T19:28:53.878Z,100674.97
2022-09-24T19:31:31.982Z,100674.09
2022-09-24T19:34:02.867Z,100679.28
2022-09-24T19:36:29.797Z,100673.22
2022-09-24T19:38:56.374Z,100682.84
2022-09-24T19:41:26.294Z,100688.06
2022-09-24T19:43:54.684Z,100677.63
2022-09-24T19:46:24.322Z,100686.31
2022-09-24T19:48:51.627Z,100682.00
2022-09-24T19:51:21.143Z,100681.09
2022-09-24T19:53:48.558Z,100682.81
2022-09-24T19:56:16.361Z,100688.19
2022-09-24T19:58:47.039Z,100690.81
2022-09-24T20:01:17.400Z,100687.34
2022-09-24T20:03:44.659Z,100668.97
2022-09-24T20:06:13.752Z,100682.00
2022-09-24T20:08:40.791Z,100679.44
2022-09-24T20:11:12.146Z,100696.03
2022-09-24T20:13:40.495Z,100682.91
2022-09-24T20:16:07.585Z,100675.06
2022-09-24T20:18:34.649Z,100678.56
2022-09-24T20:21:05.796Z,100681.13
2022-09-24T20:23:32.461Z,100691.66
2022-09-24T20:26:17.623Z,100687.25
2022-09-24T20:28:44.322Z,100679.38
2022-09-24T20:31:12.926Z,100687.25
2022-09-24T20:33:42.351Z,100689.03
2022-09-24T20:36:16.049Z,100686.38
2022-09-24T20:38:46.398Z,100684.63
2022-09-24T20:41:16.503Z,100692.47
2022-09-24T20:43:44.287Z,100690.81
2022-09-24T20:46:24.042Z,100687.28
2022-09-24T20:48:58.205Z,100686.41
2022-09-24T20:51:26.262Z,100689.03
2022-09-24T20:53:53.774Z,100689.06
2022-09-24T20:56:21.406Z,100694.28
2022-09-24T20:58:52.933Z,100700.41
2022-09-24T21:01:20.834Z,100693.41
2022-09-24T21:03:50.327Z,100703.03
2022-09-24T21:06:17.899Z,100696.94
2022-09-24T21:08:45.918Z,100704.75
2022-09-24T21:11:19.002Z,100700.41
2022-09-24T21:13:51.518Z,100703.91
2022-09-24T21:16:26.756Z,100694.28
2022-09-24T21:18:56.616Z,100695.22
2022-09-24T21:21:26.227Z,100692.56
2022-09-24T21:23:53.382Z,100693.44
2022-09-24T21:26:30.256Z,100698.66
2022-09-24T21:29:09.906Z,100705.66
2022-09-24T21:31:39.042Z,100703.91
2022-09-24T21:34:07.196Z,100706.53
2022-09-24T21:36:43.757Z,100702.19
2022-09-24T21:39:19.987Z,100698.75
2022-09-24T21:41:51.367Z,100708.31
2022-09-24T21:44:19.167Z,100707.41
2022-09-24T21:46:46.744Z,100703.91
2022-09-24T21:49:13.506Z,100700.47
2022-09-24T21:51:41.092Z,100709.16
2022-09-24T21:54:12.321Z,100699.59
2022-09-24T21:56:38.908Z,100693.50
2022-09-24T21:59:25.457Z,100693.47
2022-09-24T22:01:52.281Z,100701.28
2022-09-24T22:04:19.382Z,100696.06
2022-09-24T22:06:47.002Z,100699.56
2022-09-24T22:09:13.744Z,100699.56
2022-09-24T22:11:40.337Z,100703.91
2022-09-24T22:14:07.032Z,100700.41
2022-09-24T22:16:36.082Z,100705.63
2022-09-24T22:19:05.084Z,100689.09
2022-09-24T22:21:32.147Z,100696.94
2022-09-24T22:23:59.218Z,100696.91
2022-09-24T22:26:26.597Z,100708.25
2022-09-24T22:28:53.964Z,100698.66
2022-09-24T22:31:21.224Z,100702.16
2022-09-24T22:34:06.719Z,100703.88
2022-09-24T22:36:35.270Z,100696.94
2022-09-24T22:39:03.883Z,100697.81
2022-09-24T22:41:31.007Z,100700.44
2022-09-24T22:43:58.362Z,100698.66
2022-09-24T22:46:26.923Z,100703.88
2022-09-24T22:48:55.399Z,100698.69
2022-09-24T22:51:23.134Z,100706.56
2022-09-24T22:53:50.089Z,100710.91
2022-09-24T22:56:19.346Z,100696.94
2022-09-24T22:58:51.395Z,100705.66
2022-09-24T23:01:22.457Z,100688.25
2022-09-24T23:03:54.062Z,100699.56
2022-09-24T23:06:21.926Z,100699.56
2022-09-24T23:08:49.469Z,100705.66
2022-09-24T23:11:36.291Z,100698.72
2022-09-24T23:14:05.883Z,100698.72
2022-09-24T23:16:34.236Z,100695.22
2022-09-24T23:19:05.712Z,100703.97
2022-09-24T23:21:33.212Z,100698.72
2022-09-24T23:24:14.732Z,100696.09
2022-09-24T23:26:41.323Z,100684.78
2022-09-24T23:29:08.758Z,100691.72
2022-09-24T23:31:36.994Z,100691.75
2022-09-24T23:34:06.706Z,100689.16
2022-09-24T23:36:34.642Z,100688.25
2022-09-24T23:39:02.231Z,100699.53
2022-09-24T23:41:32.107Z,100697.84
2022-09-24T23:43:59.795Z,100699.59
2022-09-24T23:46:27.444Z,100693.50
2022-09-24T23:48:54.770Z,100692.63
2022-09-24T23:51:21.487Z,100693.50
2022-09-24T23:53:48.374Z,100700.47
2022-09-24T23:56:14.958Z,100695.25
2022-09-24T23:58:42.082Z,100696.97
